sensor_id;sensor_type;location;lat;lon;timestamp;P1;durP1;ratioP1;P2;durP2;ratioP2
38859;SDS011;24609;48.316;16.174;2023-12-20T00:00:13;47.95;;;19.55;;
38859;SDS011;24609;48.316;16.174;2023-12-20T00:02:39;26.80;;;16.70;;
38859;SDS011;24609;48.316;16.174;2023-12-20T00:05:05;28.50;;;18.67;;
38859;SDS011;24609;48.316;16.174;2023-12-20T00:07:31;34.47;;;23.30;;
38859;SDS011;24609;48.316;16.174;2023-12-20T00:09:57;37.72;;;26.00;;
38859;SDS011;24609;48.316;16.174;2023-12-20T00:12:22;55.38;;;30.52;;
38859;SDS011;24609;48.316;16.174;2023-12-20T00:14:48;61.25;;;33.00;;
38859;SDS011;24609;48.316;16.174;2023-12-20T00:17:13;48.00;;;28.90;;
38859;SDS011;24609;48.316;16.174;2023-12-20T00:19:40;38.85;;;25.55;;
38859;SDS011;24609;48.316;16.174;2023-12-20T00:22:05;36.35;;;23.65;;
38859;SDS011;24609;48.316;16.174;2023-12-20T00:24:31;37.70;;;23.88;;
38859;SDS011;24609;48.316;16.174;2023-12-20T00:26:57;34.45;;;21.75;;
38859;SDS011;24609;48.316;16.174;2023-12-20T00:29:22;34.60;;;22.35;;
38859;SDS011;24609;48.316;16.174;2023-12-20T00:31:48;29.05;;;19.13;;
38859;SDS011;24609;48.316;16.174;2023-12-20T00:34:13;29.20;;;19.77;;
38859;SDS011;24609;48.316;16.174;2023-12-20T00:36:39;28.08;;;19.05;;
38859;SDS011;24609;48.316;16.174;2023-12-20T00:39:05;26.23;;;17.15;;
38859;SDS011;24609;48.316;16.174;2023-12-20T00:41:31;16.88;;;10.95;;
38859;SDS011;24609;48.316;16.174;2023-12-20T00:43:57;26.73;;;18.25;;
38859;SDS011;24609;48.316;16.174;2023-12-20T00:46:23;24.38;;;15.73;;
38859;SDS011;24609;48.316;16.174;2023-12-20T00:48:49;18.70;;;14.10;;
38859;SDS011;24609;48.316;16.174;2023-12-20T00:51:14;16.65;;;12.48;;
38859;SDS011;24609;48.316;16.174;2023-12-20T00:53:40;17.75;;;12.02;;
38859;SDS011;24609;48.316;16.174;2023-12-20T00:56:05;16.38;;;10.68;;
38859;SDS011;24609;48.316;16.174;2023-12-20T00:58:31;13.70;;;9.52;;
38859;SDS011;24609;48.316;16.174;2023-12-20T01:00:57;25.35;;;16.23;;
38859;SDS011;24609;48.316;16.174;2023-12-20T01:03:23;20.70;;;11.68;;
38859;SDS011;24609;48.316;16.174;2023-12-20T01:05:49;14.05;;;9.55;;
38859;SDS011;24609;48.316;16.174;2023-12-20T01:08:14;14.00;;;9.43;;
38859;SDS011;24609;48.316;16.174;2023-12-20T01:10:40;10.65;;;7.47;;
38859;SDS011;24609;48.316;16.174;2023-12-20T01:13:06;9.48;;;6.75;;
38859;SDS011;24609;48.316;16.174;2023-12-20T01:15:32;12.63;;;8.48;;
38859;SDS011;24609;48.316;16.174;2023-12-20T01:17:57;9.52;;;5.82;;
38859;SDS011;24609;48.316;16.174;2023-12-20T01:20:24;7.32;;;5.20;;
38859;SDS011;24609;48.316;16.174;2023-12-20T01:22:50;7.95;;;5.30;;
38859;SDS011;24609;48.316;16.174;2023-12-20T01:25:16;7.30;;;5.68;;
38859;SDS011;24609;48.316;16.174;2023-12-20T01:27:41;7.50;;;4.45;;
38859;SDS011;24609;48.316;16.174;2023-12-20T01:30:07;7.43;;;4.95;;
38859;SDS011;24609;48.316;16.174;2023-12-20T01:32:34;5.88;;;4.45;;
38859;SDS011;24609;48.316;16.174;2023-12-20T01:34:59;10.20;;;4.78;;
38859;SDS011;24609;48.316;16.174;2023-12-20T01:37:25;6.38;;;4.57;;
38859;SDS011;24609;48.316;16.174;2023-12-20T01:39:51;6.07;;;4.28;;
38859;SDS011;24609;48.316;16.174;2023-12-20T01:42:18;7.40;;;4.30;;
38859;SDS011;24609;48.316;16.174;2023-12-20T01:44:43;5.75;;;4.05;;
38859;SDS011;24609;48.316;16.174;2023-12-20T01:47:09;5.97;;;3.72;;
38859;SDS011;24609;48.316;16.174;2023-12-20T01:49:35;5.95;;;3.67;;
38859;SDS011;24609;48.316;16.174;2023-12-20T01:52:01;5.60;;;3.58;;
38859;SDS011;24609;48.316;16.174;2023-12-20T01:54:27;5.03;;;3.40;;
38859;SDS011;24609;48.316;16.174;2023-12-20T01:56:53;5.82;;;3.55;;
38859;SDS011;24609;48.316;16.174;2023-12-20T01:59:18;6.07;;;4.10;;
38859;SDS011;24609;48.316;16.174;2023-12-20T02:01:46;6.47;;;4.20;;
38859;SDS011;24609;48.316;16.174;2023-12-20T02:04:11;5.85;;;3.75;;
38859;SDS011;24609;48.316;16.174;2023-12-20T02:06:37;4.50;;;3.00;;
38859;SDS011;24609;48.316;16.174;2023-12-20T02:09:05;3.80;;;2.67;;
38859;SDS011;24609;48.316;16.174;2023-12-20T02:11:32;3.90;;;2.63;;
38859;SDS011;24609;48.316;16.174;2023-12-20T02:13:58;4.60;;;2.50;;
38859;SDS011;24609;48.316;16.174;2023-12-20T02:16:24;3.75;;;2.30;;
38859;SDS011;24609;48.316;16.174;2023-12-20T02:18:50;9.07;;;2.42;;
38859;SDS011;24609;48.316;16.174;2023-12-20T02:21:15;4.43;;;2.10;;
38859;SDS011;24609;48.316;16.174;2023-12-20T02:23:41;3.47;;;2.33;;
38859;SDS011;24609;48.316;16.174;2023-12-20T02:26:07;3.42;;;2.10;;
38859;SDS011;24609;48.316;16.174;2023-12-20T02:28:33;4.47;;;2.55;;
38859;SDS011;24609;48.316;16.174;2023-12-20T02:30:59;3.38;;;2.25;;
38859;SDS011;24609;48.316;16.174;2023-12-20T02:33:25;4.95;;;2.25;;
38859;SDS011;24609;48.316;16.174;2023-12-20T02:35:50;3.15;;;2.15;;
38859;SDS011;24609;48.316;16.174;2023-12-20T02:38:17;4.47;;;2.20;;
38859;SDS011;24609;48.316;16.174;2023-12-20T02:40:43;4.22;;;2.65;;
38859;SDS011;24609;48.316;16.174;2023-12-20T02:43:09;5.05;;;2.22;;
38859;SDS011;24609;48.316;16.174;2023-12-20T02:45:34;4.18;;;2.75;;
38859;SDS011;24609;48.316;16.174;2023-12-20T02:48:00;4.28;;;2.75;;
38859;SDS011;24609;48.316;16.174;2023-12-20T02:50:27;3.92;;;2.55;;
38859;SDS011;24609;48.316;16.174;2023-12-20T02:52:52;3.65;;;2.65;;
38859;SDS011;24609;48.316;16.174;2023-12-20T02:55:18;3.90;;;2.60;;
38859;SDS011;24609;48.316;16.174;2023-12-20T02:57:43;6.03;;;2.65;;
38859;SDS011;24609;48.316;16.174;2023-12-20T03:00:09;4.40;;;2.67;;
38859;SDS011;24609;48.316;16.174;2023-12-20T03:02:35;4.78;;;2.50;;
38859;SDS011;24609;48.316;16.174;2023-12-20T03:05:02;5.70;;;2.72;;
38859;SDS011;24609;48.316;16.174;2023-12-20T03:07:28;4.95;;;2.72;;
38859;SDS011;24609;48.316;16.174;2023-12-20T03:09:54;3.40;;;2.60;;
38859;SDS011;24609;48.316;16.174;2023-12-20T03:12:19;5.00;;;2.85;;
38859;SDS011;24609;48.316;16.174;2023-12-20T03:14:45;5.55;;;2.78;;
38859;SDS011;24609;48.316;16.174;2023-12-20T03:17:11;5.32;;;3.20;;
38859;SDS011;24609;48.316;16.174;2023-12-20T03:19:36;6.25;;;3.53;;
38859;SDS011;24609;48.316;16.174;2023-12-20T03:22:02;4.30;;;3.20;;
38859;SDS011;24609;48.316;16.174;2023-12-20T03:24:28;4.05;;;2.85;;
38859;SDS011;24609;48.316;16.174;2023-12-20T03:26:53;4.53;;;3.20;;
38859;SDS011;24609;48.316;16.174;2023-12-20T03:29:19;5.35;;;3.60;;
38859;SDS011;24609;48.316;16.174;2023-12-20T03:31:45;4.90;;;3.67;;
38859;SDS011;24609;48.316;16.174;2023-12-20T03:34:10;5.05;;;3.88;;
38859;SDS011;24609;48.316;16.174;2023-12-20T03:36:36;4.72;;;3.60;;
38859;SDS011;24609;48.316;16.174;2023-12-20T03:39:02;4.93;;;3.42;;
38859;SDS011;24609;48.316;16.174;2023-12-20T03:41:28;4.90;;;3.40;;
38859;SDS011;24609;48.316;16.174;2023-12-20T03:43:54;5.13;;;3.40;;
38859;SDS011;24609;48.316;16.174;2023-12-20T03:46:19;5.40;;;3.97;;
38859;SDS011;24609;48.316;16.174;2023-12-20T03:48:45;6.60;;;4.50;;
38859;SDS011;24609;48.316;16.174;2023-12-20T03:51:11;5.82;;;3.55;;
38859;SDS011;24609;48.316;16.174;2023-12-20T03:53:37;6.10;;;3.85;;
38859;SDS011;24609;48.316;16.174;2023-12-20T03:56:03;5.30;;;3.47;;
38859;SDS011;24609;48.316;16.174;2023-12-20T03:58:28;5.57;;;3.35;;
38859;SDS011;24609;48.316;16.174;2023-12-20T04:00:54;5.18;;;3.50;;
38859;SDS011;24609;48.316;16.174;2023-12-20T04:03:20;5.22;;;3.85;;
38859;SDS011;24609;48.316;16.174;2023-12-20T04:05:45;5.28;;;4.10;;
38859;SDS011;24609;48.316;16.174;2023-12-20T04:08:11;5.47;;;4.28;;
38859;SDS011;24609;48.316;16.174;2023-12-20T04:10:37;5.85;;;3.90;;
38859;SDS011;24609;48.316;16.174;2023-12-20T04:13:03;5.90;;;3.95;;
38859;SDS011;24609;48.316;16.174;2023-12-20T04:15:29;4.85;;;3.70;;
38859;SDS011;24609;48.316;16.174;2023-12-20T04:17:55;5.88;;;3.88;;
38859;SDS011;24609;48.316;16.174;2023-12-20T04:20:21;6.97;;;3.80;;
38859;SDS011;24609;48.316;16.174;2023-12-20T04:22:46;7.95;;;4.07;;
38859;SDS011;24609;48.316;16.174;2023-12-20T04:25:12;5.10;;;3.75;;
38859;SDS011;24609;48.316;16.174;2023-12-20T04:27:38;5.82;;;4.88;;
38859;SDS011;24609;48.316;16.174;2023-12-20T04:30:04;6.82;;;4.47;;
38859;SDS011;24609;48.316;16.174;2023-12-20T04:32:30;5.43;;;3.95;;
38859;SDS011;24609;48.316;16.174;2023-12-20T04:34:56;5.85;;;4.32;;
38859;SDS011;24609;48.316;16.174;2023-12-20T04:37:22;5.30;;;3.75;;
38859;SDS011;24609;48.316;16.174;2023-12-20T04:39:48;5.10;;;3.70;;
38859;SDS011;24609;48.316;16.174;2023-12-20T04:42:13;6.35;;;4.03;;
38859;SDS011;24609;48.316;16.174;2023-12-20T04:44:39;7.80;;;4.63;;
38859;SDS011;24609;48.316;16.174;2023-12-20T04:47:05;5.45;;;4.10;;
38859;SDS011;24609;48.316;16.174;2023-12-20T04:49:31;6.85;;;4.63;;
38859;SDS011;24609;48.316;16.174;2023-12-20T04:51:56;5.88;;;4.20;;
38859;SDS011;24609;48.316;16.174;2023-12-20T04:54:22;6.88;;;4.45;;
38859;SDS011;24609;48.316;16.174;2023-12-20T04:56:47;6.82;;;4.85;;
38859;SDS011;24609;48.316;16.174;2023-12-20T04:59:13;5.53;;;3.92;;
38859;SDS011;24609;48.316;16.174;2023-12-20T05:01:39;6.18;;;4.03;;
38859;SDS011;24609;48.316;16.174;2023-12-20T05:04:04;6.28;;;4.28;;
38859;SDS011;24609;48.316;16.174;2023-12-20T05:06:30;5.82;;;4.18;;
38859;SDS011;24609;48.316;16.174;2023-12-20T05:08:56;9.10;;;4.38;;
38859;SDS011;24609;48.316;16.174;2023-12-20T05:11:21;5.95;;;4.22;;
38859;SDS011;24609;48.316;16.174;2023-12-20T05:13:47;8.40;;;4.95;;
38859;SDS011;24609;48.316;16.174;2023-12-20T05:16:13;6.88;;;4.43;;
38859;SDS011;24609;48.316;16.174;2023-12-20T05:18:45;7.63;;;4.28;;
38859;SDS011;24609;48.316;16.174;2023-12-20T05:21:12;8.43;;;5.38;;
38859;SDS011;24609;48.316;16.174;2023-12-20T05:23:38;6.22;;;5.05;;
38859;SDS011;24609;48.316;16.174;2023-12-20T05:26:03;8.20;;;5.55;;
38859;SDS011;24609;48.316;16.174;2023-12-20T05:28:29;5.82;;;4.57;;
38859;SDS011;24609;48.316;16.174;2023-12-20T05:30:54;8.32;;;5.50;;
38859;SDS011;24609;48.316;16.174;2023-12-20T05:33:20;7.57;;;5.78;;
38859;SDS011;24609;48.316;16.174;2023-12-20T05:35:46;8.85;;;5.13;;
38859;SDS011;24609;48.316;16.174;2023-12-20T05:38:11;7.55;;;5.10;;
38859;SDS011;24609;48.316;16.174;2023-12-20T05:40:37;6.72;;;4.93;;
38859;SDS011;24609;48.316;16.174;2023-12-20T05:43:03;8.73;;;5.55;;
38859;SDS011;24609;48.316;16.174;2023-12-20T05:45:29;8.88;;;5.47;;
38859;SDS011;24609;48.316;16.174;2023-12-20T05:47:54;8.95;;;5.43;;
38859;SDS011;24609;48.316;16.174;2023-12-20T05:50:20;10.68;;;5.32;;
38859;SDS011;24609;48.316;16.174;2023-12-20T05:52:46;11.05;;;6.10;;
38859;SDS011;24609;48.316;16.174;2023-12-20T05:55:12;6.78;;;4.75;;
38859;SDS011;24609;48.316;16.174;2023-12-20T05:57:37;6.72;;;5.03;;
38859;SDS011;24609;48.316;16.174;2023-12-20T06:00:03;7.75;;;5.10;;
38859;SDS011;24609;48.316;16.174;2023-12-20T06:02:29;8.20;;;5.38;;
38859;SDS011;24609;48.316;16.174;2023-12-20T06:04:55;9.70;;;5.32;;
38859;SDS011;24609;48.316;16.174;2023-12-20T06:07:20;9.35;;;5.60;;
38859;SDS011;24609;48.316;16.174;2023-12-20T06:09:46;8.85;;;5.03;;
38859;SDS011;24609;48.316;16.174;2023-12-20T06:12:12;9.70;;;5.70;;
38859;SDS011;24609;48.316;16.174;2023-12-20T06:14:37;11.35;;;6.55;;
38859;SDS011;24609;48.316;16.174;2023-12-20T06:17:03;7.97;;;5.75;;
38859;SDS011;24609;48.316;16.174;2023-12-20T06:19:29;8.63;;;5.50;;
38859;SDS011;24609;48.316;16.174;2023-12-20T06:21:54;9.15;;;5.70;;
38859;SDS011;24609;48.316;16.174;2023-12-20T06:24:20;9.05;;;6.03;;
38859;SDS011;24609;48.316;16.174;2023-12-20T06:26:46;7.88;;;5.50;;
38859;SDS011;24609;48.316;16.174;2023-12-20T06:29:12;7.75;;;5.35;;
38859;SDS011;24609;48.316;16.174;2023-12-20T06:31:38;5.93;;;4.70;;
38859;SDS011;24609;48.316;16.174;2023-12-20T06:34:03;9.38;;;5.28;;
38859;SDS011;24609;48.316;16.174;2023-12-20T06:36:29;7.65;;;4.88;;
38859;SDS011;24609;48.316;16.174;2023-12-20T06:38:55;6.93;;;4.30;;
38859;SDS011;24609;48.316;16.174;2023-12-20T06:41:20;6.60;;;4.22;;
38859;SDS011;24609;48.316;16.174;2023-12-20T06:43:46;5.82;;;3.83;;
38859;SDS011;24609;48.316;16.174;2023-12-20T06:46:12;5.55;;;3.95;;
38859;SDS011;24609;48.316;16.174;2023-12-20T06:48:38;5.03;;;4.07;;
38859;SDS011;24609;48.316;16.174;2023-12-20T06:51:05;5.35;;;3.67;;
38859;SDS011;24609;48.316;16.174;2023-12-20T06:53:31;10.82;;;4.70;;
38859;SDS011;24609;48.316;16.174;2023-12-20T06:55:56;6.03;;;4.22;;
38859;SDS011;24609;48.316;16.174;2023-12-20T06:58:22;7.18;;;5.00;;
38859;SDS011;24609;48.316;16.174;2023-12-20T07:00:48;6.95;;;5.05;;
38859;SDS011;24609;48.316;16.174;2023-12-20T07:03:15;12.82;;;5.32;;
38859;SDS011;24609;48.316;16.174;2023-12-20T07:05:41;8.48;;;4.75;;
38859;SDS011;24609;48.316;16.174;2023-12-20T07:08:07;8.13;;;5.15;;
38859;SDS011;24609;48.316;16.174;2023-12-20T07:10:33;8.27;;;4.85;;
38859;SDS011;24609;48.316;16.174;2023-12-20T07:12:58;9.02;;;5.07;;
38859;SDS011;24609;48.316;16.174;2023-12-20T07:15:24;7.70;;;4.70;;
38859;SDS011;24609;48.316;16.174;2023-12-20T07:17:50;8.45;;;5.32;;
38859;SDS011;24609;48.316;16.174;2023-12-20T07:20:15;8.25;;;4.90;;
38859;SDS011;24609;48.316;16.174;2023-12-20T07:22:41;8.10;;;5.65;;
38859;SDS011;24609;48.316;16.174;2023-12-20T07:25:07;7.50;;;5.72;;
38859;SDS011;24609;48.316;16.174;2023-12-20T07:27:33;10.77;;;6.43;;
38859;SDS011;24609;48.316;16.174;2023-12-20T07:29:59;7.85;;;5.65;;
38859;SDS011;24609;48.316;16.174;2023-12-20T07:32:24;10.88;;;5.88;;
38859;SDS011;24609;48.316;16.174;2023-12-20T07:34:50;8.15;;;5.55;;
38859;SDS011;24609;48.316;16.174;2023-12-20T07:37:16;6.55;;;5.13;;
38859;SDS011;24609;48.316;16.174;2023-12-20T07:39:41;8.55;;;6.18;;
38859;SDS011;24609;48.316;16.174;2023-12-20T07:42:07;7.35;;;5.22;;
38859;SDS011;24609;48.316;16.174;2023-12-20T07:44:34;7.32;;;4.78;;
38859;SDS011;24609;48.316;16.174;2023-12-20T07:47:01;7.78;;;4.95;;
38859;SDS011;24609;48.316;16.174;2023-12-20T07:49:27;6.75;;;4.80;;
38859;SDS011;24609;48.316;16.174;2023-12-20T07:51:53;8.05;;;5.30;;
38859;SDS011;24609;48.316;16.174;2023-12-20T07:54:18;9.00;;;4.82;;
38859;SDS011;24609;48.316;16.174;2023-12-20T07:56:45;10.68;;;5.07;;
38859;SDS011;24609;48.316;16.174;2023-12-20T07:59:11;7.05;;;4.90;;
38859;SDS011;24609;48.316;16.174;2023-12-20T08:01:37;7.00;;;4.28;;
38859;SDS011;24609;48.316;16.174;2023-12-20T08:04:03;7.05;;;4.88;;
38859;SDS011;24609;48.316;16.174;2023-12-20T08:06:28;7.03;;;5.03;;
38859;SDS011;24609;48.316;16.174;2023-12-20T08:08:54;8.05;;;5.10;;
38859;SDS011;24609;48.316;16.174;2023-12-20T08:11:20;7.85;;;4.78;;
38859;SDS011;24609;48.316;16.174;2023-12-20T08:13:45;8.00;;;4.90;;
38859;SDS011;24609;48.316;16.174;2023-12-20T08:16:11;7.18;;;4.82;;
38859;SDS011;24609;48.316;16.174;2023-12-20T08:18:38;6.63;;;4.85;;
38859;SDS011;24609;48.316;16.174;2023-12-20T08:21:04;8.07;;;4.70;;
38859;SDS011;24609;48.316;16.174;2023-12-20T08:23:32;8.60;;;4.70;;
38859;SDS011;24609;48.316;16.174;2023-12-20T08:25:58;9.43;;;4.90;;
38859;SDS011;24609;48.316;16.174;2023-12-20T08:28:28;8.68;;;5.07;;
38859;SDS011;24609;48.316;16.174;2023-12-20T08:30:54;7.18;;;5.30;;
38859;SDS011;24609;48.316;16.174;2023-12-20T08:33:19;8.75;;;4.95;;
38859;SDS011;24609;48.316;16.174;2023-12-20T08:35:45;8.07;;;4.60;;
38859;SDS011;24609;48.316;16.174;2023-12-20T08:38:11;8.95;;;5.13;;
38859;SDS011;24609;48.316;16.174;2023-12-20T08:40:37;6.05;;;3.95;;
38859;SDS011;24609;48.316;16.174;2023-12-20T08:43:03;8.10;;;4.88;;
38859;SDS011;24609;48.316;16.174;2023-12-20T08:45:28;7.40;;;4.85;;
38859;SDS011;24609;48.316;16.174;2023-12-20T08:47:54;6.80;;;4.65;;
38859;SDS011;24609;48.316;16.174;2023-12-20T08:50:20;6.22;;;4.55;;
38859;SDS011;24609;48.316;16.174;2023-12-20T08:52:45;5.65;;;4.07;;
38859;SDS011;24609;48.316;16.174;2023-12-20T08:55:12;8.77;;;4.53;;
38859;SDS011;24609;48.316;16.174;2023-12-20T08:57:38;6.30;;;3.88;;
38859;SDS011;24609;48.316;16.174;2023-12-20T09:00:03;6.43;;;3.85;;
38859;SDS011;24609;48.316;16.174;2023-12-20T09:02:32;4.85;;;3.45;;
38859;SDS011;24609;48.316;16.174;2023-12-20T09:04:58;3.65;;;3.10;;
38859;SDS011;24609;48.316;16.174;2023-12-20T09:07:24;4.55;;;3.25;;
38859;SDS011;24609;48.316;16.174;2023-12-20T09:09:51;3.78;;;3.03;;
38859;SDS011;24609;48.316;16.174;2023-12-20T09:12:20;4.35;;;3.30;;
38859;SDS011;24609;48.316;16.174;2023-12-20T09:14:46;3.92;;;3.42;;
38859;SDS011;24609;48.316;16.174;2023-12-20T09:17:13;5.45;;;3.10;;
38859;SDS011;24609;48.316;16.174;2023-12-20T09:19:41;6.07;;;3.75;;
38859;SDS011;24609;48.316;16.174;2023-12-20T09:22:07;5.30;;;3.38;;
38859;SDS011;24609;48.316;16.174;2023-12-20T09:24:32;15.43;;;4.30;;
38859;SDS011;24609;48.316;16.174;2023-12-20T09:26:59;5.30;;;3.63;;
38859;SDS011;24609;48.316;16.174;2023-12-20T09:29:25;5.05;;;3.30;;
38859;SDS011;24609;48.316;16.174;2023-12-20T09:31:50;4.05;;;3.05;;
38859;SDS011;24609;48.316;16.174;2023-12-20T09:34:16;4.68;;;3.25;;
38859;SDS011;24609;48.316;16.174;2023-12-20T09:36:42;3.97;;;2.90;;
38859;SDS011;24609;48.316;16.174;2023-12-20T09:39:12;3.60;;;2.72;;
38859;SDS011;24609;48.316;16.174;2023-12-20T09:42:03;4.85;;;2.55;;
38859;SDS011;24609;48.316;16.174;2023-12-20T09:44:31;4.38;;;2.80;;
38859;SDS011;24609;48.316;16.174;2023-12-20T09:47:01;3.05;;;2.42;;
38859;SDS011;24609;48.316;16.174;2023-12-20T09:49:28;2.95;;;2.65;;
38859;SDS011;24609;48.316;16.174;2023-12-20T09:51:55;4.40;;;2.40;;
38859;SDS011;24609;48.316;16.174;2023-12-20T09:54:22;2.80;;;2.30;;
38859;SDS011;24609;48.316;16.174;2023-12-20T09:56:49;3.33;;;2.10;;
38859;SDS011;24609;48.316;16.174;2023-12-20T09:59:15;3.67;;;2.10;;
38859;SDS011;24609;48.316;16.174;2023-12-20T10:01:41;3.50;;;2.10;;
38859;SDS011;24609;48.316;16.174;2023-12-20T10:04:08;2.38;;;1.88;;
38859;SDS011;24609;48.316;16.174;2023-12-20T10:06:40;2.42;;;1.80;;
38859;SDS011;24609;48.316;16.174;2023-12-20T10:09:06;2.88;;;2.10;;
38859;SDS011;24609;48.316;16.174;2023-12-20T10:11:34;1.95;;;1.55;;
38859;SDS011;24609;48.316;16.174;2023-12-20T10:14:04;2.60;;;2.08;;
38859;SDS011;24609;48.316;16.174;2023-12-20T10:16:30;2.80;;;2.33;;
38859;SDS011;24609;48.316;16.174;2023-12-20T10:18:57;3.55;;;2.70;;
38859;SDS011;24609;48.316;16.174;2023-12-20T10:21:24;4.68;;;2.70;;
38859;SDS011;24609;48.316;16.174;2023-12-20T10:23:54;4.05;;;3.05;;
38859;SDS011;24609;48.316;16.174;2023-12-20T10:26:21;4.53;;;3.05;;
38859;SDS011;24609;48.316;16.174;2023-12-20T10:28:56;3.72;;;2.78;;
38859;SDS011;24609;48.316;16.174;2023-12-20T10:31:28;3.67;;;2.80;;
38859;SDS011;24609;48.316;16.174;2023-12-20T10:33:58;3.85;;;3.03;;
38859;SDS011;24609;48.316;16.174;2023-12-20T10:36:29;4.55;;;3.63;;
38859;SDS011;24609;48.316;16.174;2023-12-20T10:38:56;4.35;;;3.22;;
38859;SDS011;24609;48.316;16.174;2023-12-20T10:41:27;5.00;;;2.92;;
38859;SDS011;24609;48.316;16.174;2023-12-20T10:44:03;3.92;;;3.30;;
38859;SDS011;24609;48.316;16.174;2023-12-20T10:46:33;3.33;;;2.80;;
38859;SDS011;24609;48.316;16.174;2023-12-20T10:48:59;4.95;;;2.85;;
38859;SDS011;24609;48.316;16.174;2023-12-20T10:51:30;4.32;;;3.28;;
38859;SDS011;24609;48.316;16.174;2023-12-20T10:53:58;6.15;;;3.47;;
38859;SDS011;24609;48.316;16.174;2023-12-20T10:56:24;6.97;;;3.65;;
38859;SDS011;24609;48.316;16.174;2023-12-20T11:01:21;4.00;;;3.30;;
38859;SDS011;24609;48.316;16.174;2023-12-20T11:03:48;3.75;;;3.00;;
38859;SDS011;24609;48.316;16.174;2023-12-20T11:06:26;4.45;;;3.10;;
38859;SDS011;24609;48.316;16.174;2023-12-20T11:17:16;5.05;;;3.95;;
38859;SDS011;24609;48.316;16.174;2023-12-20T11:22:24;3.72;;;3.30;;
38859;SDS011;24609;48.316;16.174;2023-12-20T11:24:51;4.10;;;3.65;;
38859;SDS011;24609;48.316;16.174;2023-12-20T11:27:18;3.95;;;3.50;;
38859;SDS011;24609;48.316;16.174;2023-12-20T11:29:51;3.42;;;3.13;;
38859;SDS011;24609;48.316;16.174;2023-12-20T11:34:54;3.97;;;3.55;;
38859;SDS011;24609;48.316;16.174;2023-12-20T11:37:30;4.10;;;3.28;;
38859;SDS011;24609;48.316;16.174;2023-12-20T11:40:00;4.00;;;2.95;;
38859;SDS011;24609;48.316;16.174;2023-12-20T11:42:32;3.92;;;3.00;;
38859;SDS011;24609;48.316;16.174;2023-12-20T11:45:09;4.55;;;3.25;;
38859;SDS011;24609;48.316;16.174;2023-12-20T11:47:47;3.20;;;2.90;;
38859;SDS011;24609;48.316;16.174;2023-12-20T11:50:17;4.15;;;3.30;;
38859;SDS011;24609;48.316;16.174;2023-12-20T11:52:43;3.70;;;3.30;;
38859;SDS011;24609;48.316;16.174;2023-12-20T11:55:09;3.90;;;3.35;;
38859;SDS011;24609;48.316;16.174;2023-12-20T11:57:35;4.45;;;3.47;;
38859;SDS011;24609;48.316;16.174;2023-12-20T12:00:02;4.50;;;3.63;;
38859;SDS011;24609;48.316;16.174;2023-12-20T12:02:29;3.78;;;3.38;;
38859;SDS011;24609;48.316;16.174;2023-12-20T12:04:55;4.25;;;3.55;;
38859;SDS011;24609;48.316;16.174;2023-12-20T12:07:21;3.50;;;3.20;;
38859;SDS011;24609;48.316;16.174;2023-12-20T12:09:47;4.57;;;3.50;;
38859;SDS011;24609;48.316;16.174;2023-12-20T12:12:13;3.65;;;3.30;;
38859;SDS011;24609;48.316;16.174;2023-12-20T12:14:40;3.53;;;3.03;;
38859;SDS011;24609;48.316;16.174;2023-12-20T12:17:12;3.20;;;2.78;;
38859;SDS011;24609;48.316;16.174;2023-12-20T12:19:39;3.88;;;2.95;;
38859;SDS011;24609;48.316;16.174;2023-12-20T12:24:45;4.43;;;2.50;;
38859;SDS011;24609;48.316;16.174;2023-12-20T12:27:15;2.80;;;2.60;;
38859;SDS011;24609;48.316;16.174;2023-12-20T12:29:42;2.60;;;2.03;;
38859;SDS011;24609;48.316;16.174;2023-12-20T12:32:29;2.30;;;2.10;;
38859;SDS011;24609;48.316;16.174;2023-12-20T12:34:55;4.72;;;2.45;;
38859;SDS011;24609;48.316;16.174;2023-12-20T12:37:22;3.08;;;2.58;;
38859;SDS011;24609;48.316;16.174;2023-12-20T12:39:49;4.25;;;2.72;;
38859;SDS011;24609;48.316;16.174;2023-12-20T12:42:14;3.10;;;2.80;;
38859;SDS011;24609;48.316;16.174;2023-12-20T12:44:40;3.08;;;2.63;;
38859;SDS011;24609;48.316;16.174;2023-12-20T12:47:06;3.88;;;2.70;;
38859;SDS011;24609;48.316;16.174;2023-12-20T12:49:33;3.40;;;2.30;;
38859;SDS011;24609;48.316;16.174;2023-12-20T12:51:58;2.47;;;2.20;;
38859;SDS011;24609;48.316;16.174;2023-12-20T12:54:24;2.97;;;2.58;;
38859;SDS011;24609;48.316;16.174;2023-12-20T12:56:49;2.75;;;2.25;;
38859;SDS011;24609;48.316;16.174;2023-12-20T12:59:17;3.13;;;2.30;;
38859;SDS011;24609;48.316;16.174;2023-12-20T13:01:43;4.13;;;2.72;;
38859;SDS011;24609;48.316;16.174;2023-12-20T13:04:09;3.45;;;2.03;;
38859;SDS011;24609;48.316;16.174;2023-12-20T13:06:38;2.20;;;2.00;;
38859;SDS011;24609;48.316;16.174;2023-12-20T13:09:05;2.42;;;2.03;;
38859;SDS011;24609;48.316;16.174;2023-12-20T13:11:31;2.90;;;2.10;;
38859;SDS011;24609;48.316;16.174;2023-12-20T13:13:57;2.88;;;1.90;;
38859;SDS011;24609;48.316;16.174;2023-12-20T13:16:23;3.10;;;2.20;;
38859;SDS011;24609;48.316;16.174;2023-12-20T13:18:49;2.22;;;2.03;;
38859;SDS011;24609;48.316;16.174;2023-12-20T13:21:15;2.55;;;2.25;;
38859;SDS011;24609;48.316;16.174;2023-12-20T13:23:41;3.08;;;2.08;;
38859;SDS011;24609;48.316;16.174;2023-12-20T13:26:07;4.15;;;2.00;;
38859;SDS011;24609;48.316;16.174;2023-12-20T13:28:33;2.30;;;1.88;;
38859;SDS011;24609;48.316;16.174;2023-12-20T13:30:59;4.00;;;2.30;;
38859;SDS011;24609;48.316;16.174;2023-12-20T13:33:24;5.90;;;2.17;;
38859;SDS011;24609;48.316;16.174;2023-12-20T13:35:50;2.20;;;2.00;;
38859;SDS011;24609;48.316;16.174;2023-12-20T13:38:16;3.42;;;2.20;;
38859;SDS011;24609;48.316;16.174;2023-12-20T13:40:42;2.85;;;2.40;;
38859;SDS011;24609;48.316;16.174;2023-12-20T13:43:08;2.35;;;2.10;;
38859;SDS011;24609;48.316;16.174;2023-12-20T13:45:36;4.55;;;2.28;;
38859;SDS011;24609;48.316;16.174;2023-12-20T13:48:02;2.85;;;2.35;;
38859;SDS011;24609;48.316;16.174;2023-12-20T13:50:28;2.50;;;2.30;;
38859;SDS011;24609;48.316;16.174;2023-12-20T13:52:57;7.28;;;2.25;;
38859;SDS011;24609;48.316;16.174;2023-12-20T13:55:22;3.40;;;2.40;;
38859;SDS011;24609;48.316;16.174;2023-12-20T13:57:50;4.05;;;2.17;;
38859;SDS011;24609;48.316;16.174;2023-12-20T14:00:16;1.80;;;1.60;;
38859;SDS011;24609;48.316;16.174;2023-12-20T14:02:42;3.33;;;1.90;;
38859;SDS011;24609;48.316;16.174;2023-12-20T14:05:08;3.17;;;1.98;;
38859;SDS011;24609;48.316;16.174;2023-12-20T14:07:35;1.95;;;1.48;;
38859;SDS011;24609;48.316;16.174;2023-12-20T14:10:01;1.92;;;1.52;;
38859;SDS011;24609;48.316;16.174;2023-12-20T14:12:26;2.65;;;2.10;;
38859;SDS011;24609;48.316;16.174;2023-12-20T14:14:52;2.20;;;1.50;;
38859;SDS011;24609;48.316;16.174;2023-12-20T14:17:20;1.60;;;1.20;;
38859;SDS011;24609;48.316;16.174;2023-12-20T14:19:45;1.95;;;1.50;;
38859;SDS011;24609;48.316;16.174;2023-12-20T14:22:11;1.52;;;1.42;;
38859;SDS011;24609;48.316;16.174;2023-12-20T14:24:41;1.80;;;1.58;;
38859;SDS011;24609;48.316;16.174;2023-12-20T14:27:06;1.65;;;1.45;;
38859;SDS011;24609;48.316;16.174;2023-12-20T14:29:34;2.20;;;1.52;;
38859;SDS011;24609;48.316;16.174;2023-12-20T14:31:59;1.70;;;1.50;;
38859;SDS011;24609;48.316;16.174;2023-12-20T14:34:27;1.80;;;1.50;;
38859;SDS011;24609;48.316;16.174;2023-12-20T14:36:53;1.60;;;1.42;;
38859;SDS011;24609;48.316;16.174;2023-12-20T14:39:19;2.00;;;1.80;;
38859;SDS011;24609;48.316;16.174;2023-12-20T14:41:45;3.05;;;2.22;;
38859;SDS011;24609;48.316;16.174;2023-12-20T14:44:10;1.83;;;1.48;;